createdAt,value
2023-04-28T00:02:19.215Z,15.70
2023-04-28T00:04:46.572Z,14.13
2023-04-28T00:07:13.594Z,14.40
2023-04-28T00:09:40.477Z,14.00
2023-04-28T00:12:07.515Z,14.00
2023-04-28T00:14:34.362Z,14.60
2023-04-28T00:17:01.267Z,13.63
2023-04-28T00:19:28.039Z,15.37
2023-04-28T00:21:55.134Z,15.37
2023-04-28T00:24:22.056Z,12.67
2023-04-28T00:26:48.856Z,13.20
2023-04-28T00:29:15.797Z,13.67
2023-04-28T00:31:42.721Z,15.10
2023-04-28T00:34:09.706Z,17.23
2023-04-28T00:36:36.506Z,14.27
2023-04-28T00:39:03.341Z,17.20
2023-04-28T00:41:30.142Z,18.53
2023-04-28T00:43:57.030Z,15.00
2023-04-28T00:46:31.380Z,15.03
2023-04-28T00:48:58.824Z,15.53
2023-04-28T00:51:26.243Z,14.30
2023-04-28T00:53:53.295Z,15.13
2023-04-28T00:56:20.607Z,13.77
2023-04-28T00:58:47.533Z,17.40
2023-04-28T01:01:14.523Z,15.27
2023-04-28T01:03:41.983Z,16.20
2023-04-28T01:06:10.235Z,15.53
2023-04-28T01:08:38.946Z,14.97
2023-04-28T01:11:06.341Z,16.70
2023-04-28T01:13:33.329Z,14.90
2023-04-28T01:16:00.865Z,16.47
2023-04-28T01:18:28.020Z,17.17
2023-04-28T01:20:54.849Z,15.90
2023-04-28T01:23:21.990Z,17.00
2023-04-28T01:25:48.776Z,17.47
2023-04-28T01:28:15.691Z,16.77
2023-04-28T01:30:42.524Z,16.63
2023-04-28T01:33:09.791Z,17.57
2023-04-28T01:35:36.762Z,17.40
2023-04-28T01:38:03.749Z,15.77
2023-04-28T01:40:31.019Z,18.33
2023-04-28T01:42:57.866Z,15.87
2023-04-28T01:45:24.664Z,15.30
2023-04-28T01:47:51.520Z,16.30
2023-04-28T01:50:18.495Z,17.13
2023-04-28T01:52:45.393Z,16.03
2023-04-28T01:55:12.213Z,17.10
2023-04-28T01:57:39.009Z,17.53
2023-04-28T02:00:07.042Z,17.23
2023-04-28T02:02:33.978Z,20.33
2023-04-28T02:05:01.120Z,16.47
2023-04-28T02:07:28.114Z,17.60
2023-04-28T02:09:54.940Z,18.43
2023-04-28T02:12:21.779Z,16.10
2023-04-28T02:14:48.820Z,15.27
2023-04-28T02:17:15.654Z,16.70
2023-04-28T02:19:42.581Z,15.73
2023-04-28T02:22:09.396Z,14.20
2023-04-28T02:24:36.852Z,16.80
2023-04-28T02:27:05.493Z,15.53
2023-04-28T02:29:32.458Z,15.83
2023-04-28T02:31:59.353Z,16.27
2023-04-28T02:34:26.315Z,19.03
2023-04-28T02:36:53.128Z,18.67
2023-04-28T02:39:20.020Z,17.27
2023-04-28T02:41:46.847Z,18.40
2023-04-28T02:44:13.955Z,17.07
2023-04-28T02:46:40.948Z,16.40
2023-04-28T02:49:07.985Z,16.17
2023-04-28T02:51:34.912Z,16.60
2023-04-28T02:54:01.737Z,17.50
2023-04-28T02:56:28.761Z,17.97
2023-04-28T02:58:55.880Z,16.60
2023-04-28T03:01:23.834Z,16.03
2023-04-28T03:03:50.914Z,16.63
2023-04-28T03:06:17.952Z,16.10
2023-04-28T03:08:44.752Z,15.20
2023-04-28T03:11:11.816Z,16.97
2023-04-28T03:13:38.609Z,16.03
2023-04-28T03:16:06.827Z,17.73
2023-04-28T03:18:33.846Z,18.67
2023-04-28T03:21:00.704Z,17.13
2023-04-28T03:23:27.492Z,14.77
2023-04-28T03:25:54.891Z,17.97
2023-04-28T03:28:21.758Z,15.93
2023-04-28T03:30:48.677Z,16.27
2023-04-28T03:33:15.532Z,16.70
2023-04-28T03:35:42.353Z,16.87
2023-04-28T03:38:09.341Z,15.10
2023-04-28T03:40:36.422Z,15.10
2023-04-28T03:43:04.779Z,13.77
2023-04-28T03:45:32.008Z,14.77
2023-04-28T03:47:59.095Z,16.60
2023-04-28T03:50:26.764Z,13.47
2023-04-28T03:52:54.154Z,15.33
2023-04-28T03:55:21.235Z,17.07
2023-04-28T03:57:48.294Z,17.67
2023-04-28T04:00:15.400Z,15.77
2023-04-28T04:02:42.321Z,16.20
2023-04-28T04:05:09.849Z,16.27
2023-04-28T04:07:36.854Z,18.00
2023-04-28T04:10:04.791Z,17.23
2023-04-28T04:12:31.843Z,16.43
2023-04-28T04:14:58.684Z,15.33
2023-04-28T04:17:25.612Z,15.17
2023-04-28T04:19:52.692Z,14.10
2023-04-28T04:22:19.544Z,16.93
2023-04-28T04:24:46.387Z,14.90
2023-04-28T04:27:13.245Z,15.03
2023-04-28T04:29:40.292Z,20.10
2023-04-28T04:32:07.090Z,15.33
2023-04-28T04:34:33.932Z,19.40
2023-04-28T04:37:00.804Z,17.37
2023-04-28T04:39:27.610Z,17.23
2023-04-28T04:41:54.427Z,19.00
2023-04-28T04:44:21.312Z,18.10
2023-04-28T04:46:48.739Z,18.27
2023-04-28T04:49:15.828Z,19.70
2023-04-28T04:51:42.722Z,26.80
2023-04-28T04:54:09.727Z,19.13
2023-04-28T04:56:37.285Z,22.07
2023-04-28T04:59:04.212Z,18.00
2023-04-28T05:01:31.043Z,18.17
2023-04-28T05:03:58.162Z,17.90
2023-04-28T05:06:25.260Z,19.70
2023-04-28T05:08:52.100Z,17.97
2023-04-28T05:11:18.951Z,14.97
2023-04-28T05:13:45.774Z,14.43
2023-04-28T05:16:12.658Z,16.53
2023-04-28T05:18:39.549Z,21.07
2023-04-28T05:21:06.367Z,15.67
2023-04-28T05:23:33.247Z,14.60
2023-04-28T05:26:00.189Z,13.60
2023-04-28T05:28:27.099Z,13.53
2023-04-28T05:30:53.971Z,12.53
2023-04-28T05:33:20.837Z,13.53
2023-04-28T05:35:47.818Z,13.20
2023-04-28T05:38:14.703Z,12.20
2023-04-28T05:40:41.564Z,14.37
2023-04-28T05:43:08.430Z,14.17
2023-04-28T05:45:35.318Z,12.30
2023-04-28T05:48:02.278Z,14.83
2023-04-28T05:50:29.227Z,11.50
2023-04-28T05:52:56.074Z,13.33
2023-04-28T05:55:23.151Z,11.90
2023-04-28T05:57:53.379Z,12.73
2023-04-28T06:00:21.002Z,14.50
2023-04-28T06:02:47.987Z,13.20
2023-04-28T06:05:15.617Z,14.87
2023-04-28T06:07:42.911Z,13.10
2023-04-28T06:10:10.758Z,13.90
2023-04-28T06:12:37.558Z,12.87
2023-04-28T06:15:06.399Z,13.77
2023-04-28T06:17:34.439Z,11.57
2023-04-28T06:20:01.519Z,13.93
2023-04-28T06:22:28.353Z,13.90
2023-04-28T06:24:55.173Z,11.70
2023-04-28T06:27:22.034Z,11.27
2023-04-28T06:29:48.820Z,14.83
2023-04-28T06:32:15.888Z,13.37
2023-04-28T06:34:42.974Z,14.57
2023-04-28T06:37:09.914Z,11.07
2023-04-28T06:39:36.752Z,13.90
2023-04-28T06:42:03.650Z,11.13
2023-04-28T06:44:30.507Z,11.47
2023-04-28T06:46:57.479Z,11.00
2023-04-28T06:49:24.334Z,10.97
2023-04-28T06:51:51.202Z,11.83
2023-04-28T06:54:18.496Z,11.03
2023-04-28T06:56:45.715Z,9.97
2023-04-28T06:59:12.537Z,9.83
2023-04-28T07:01:39.424Z,10.27
2023-04-28T07:04:06.757Z,10.03
2023-04-28T07:06:33.820Z,10.20
2023-04-28T07:09:00.725Z,8.77
2023-04-28T07:11:27.638Z,8.67
2023-04-28T07:13:54.452Z,10.30
2023-04-28T07:16:21.456Z,13.23
2023-04-28T07:18:48.457Z,9.83
2023-04-28T07:21:15.353Z,9.30
2023-04-28T07:23:42.149Z,9.80
2023-04-28T07:26:09.236Z,9.50
2023-04-28T07:28:36.259Z,9.27
2023-04-28T07:31:03.075Z,9.17
2023-04-28T07:33:29.994Z,8.33
2023-04-28T07:35:56.934Z,11.00
2023-04-28T07:38:23.899Z,9.00
2023-04-28T07:43:22.645Z,11.93
2023-04-28T07:45:49.557Z,9.80
2023-04-28T07:48:16.804Z,13.57
2023-04-28T07:50:43.643Z,13.30
2023-04-28T07:53:10.711Z,12.80
2023-04-28T07:55:37.555Z,10.50
2023-04-28T07:58:04.533Z,9.97
2023-04-28T08:00:31.328Z,11.00
2023-04-28T08:02:58.401Z,11.17
2023-04-28T08:05:26.571Z,9.77
2023-04-28T08:07:53.996Z,11.80
2023-04-28T08:10:21.126Z,11.83
2023-04-28T08:12:48.122Z,10.70
2023-04-28T08:15:16.516Z,12.00
2023-04-28T08:17:44.175Z,9.80
2023-04-28T08:20:11.856Z,11.10
2023-04-28T08:22:38.697Z,9.70
2023-04-28T08:25:06.524Z,8.83
2023-04-28T08:27:33.452Z,12.53
2023-04-28T08:30:00.782Z,9.53
2023-04-28T08:32:27.683Z,15.50
2023-04-28T08:34:54.514Z,9.40
2023-04-28T08:37:21.359Z,8.57
2023-04-28T08:39:48.147Z,8.37
2023-04-28T08:42:16.652Z,13.00
2023-04-28T08:44:43.493Z,11.00
2023-04-28T08:47:13.955Z,14.37
2023-04-28T08:49:42.121Z,8.73
2023-04-28T08:52:17.570Z,10.30
2023-04-28T08:54:47.484Z,8.97
2023-04-28T08:57:14.763Z,12.47
2023-04-28T08:59:41.911Z,9.27
2023-04-28T09:02:09.848Z,9.60
2023-04-28T09:04:37.887Z,8.63
2023-04-28T09:07:14.243Z,10.10
2023-04-28T09:09:41.259Z,9.17
2023-04-28T09:12:08.361Z,9.43
2023-04-28T09:14:38.644Z,8.73
2023-04-28T09:17:14.533Z,8.37
2023-04-28T09:19:41.813Z,8.80
2023-04-28T09:22:24.830Z,9.77
2023-04-28T09:24:54.114Z,9.17
2023-04-28T09:27:28.770Z,8.30
2023-04-28T09:29:56.315Z,11.10
2023-04-28T09:32:24.846Z,7.97
2023-04-28T09:34:55.055Z,8.33
2023-04-28T09:37:24.770Z,8.20
2023-04-28T09:39:53.882Z,9.73
2023-04-28T09:42:41.082Z,10.07
2023-04-28T09:45:12.614Z,12.13
2023-04-28T09:47:45.302Z,9.13
2023-04-28T09:50:15.167Z,9.13
2023-04-28T09:52:44.920Z,7.67
2023-04-28T09:55:13.189Z,7.37
2023-04-28T09:57:40.447Z,7.20
2023-04-28T10:00:09.619Z,9.67
2023-04-28T10:05:10.672Z,8.00
2023-04-28T10:07:39.518Z,8.63
2023-04-28T10:10:08.683Z,8.83
2023-04-28T10:12:35.827Z,8.67
2023-04-28T10:15:03.310Z,9.03
2023-04-28T10:17:30.655Z,8.97
2023-04-28T10:19:57.648Z,7.97
2023-04-28T10:22:59.104Z,9.33
2023-04-28T10:25:34.150Z,8.43
2023-04-28T10:28:05.716Z,8.93
2023-04-28T10:30:32.606Z,9.13
2023-04-28T10:33:14.698Z,8.53
2023-04-28T10:35:45.367Z,8.60
2023-04-28T10:38:20.459Z,8.07
2023-04-28T10:40:48.767Z,9.43
2023-04-28T10:43:30.688Z,8.70
2023-04-28T10:45:58.166Z,9.70
2023-04-28T10:48:34.317Z,9.10
2023-04-28T10:51:04.367Z,8.30
2023-04-28T10:53:43.538Z,9.63
2023-04-28T10:56:16.469Z,12.57
2023-04-28T10:58:44.516Z,9.70
2023-04-28T11:01:20.496Z,9.10
2023-04-28T11:03:47.613Z,10.30
2023-04-28T11:06:24.368Z,9.97
2023-04-28T11:08:55.013Z,10.50
2023-04-28T11:11:26.288Z,10.30
2023-04-28T11:13:57.762Z,13.80
2023-04-28T11:16:25.553Z,10.53
2023-04-28T11:18:58.370Z,12.23
2023-04-28T11:21:27.217Z,11.53
2023-04-28T11:23:55.665Z,10.40
2023-04-28T11:26:22.911Z,12.63
2023-04-28T11:28:56.676Z,12.23
2023-04-28T11:31:26.308Z,10.67
2023-04-28T11:33:56.968Z,14.03
2023-04-28T11:36:34.282Z,12.90
2023-04-28T11:39:03.821Z,11.20
2023-04-28T11:41:32.085Z,11.87
2023-04-28T11:43:58.929Z,15.50
2023-04-28T11:46:26.599Z,14.20
2023-04-28T11:49:11.644Z,14.67
2023-04-28T11:51:39.277Z,16.33
2023-04-28T11:54:06.848Z,15.80
2023-04-28T11:56:43.587Z,14.47
2023-04-28T11:59:13.323Z,14.83
2023-04-28T12:01:52.701Z,14.63
2023-04-28T12:04:41.368Z,14.77
2023-04-28T12:07:19.416Z,15.00
2023-04-28T12:10:15.121Z,15.53
2023-04-28T12:12:51.111Z,21.13
2023-04-28T12:15:20.799Z,16.60
2023-04-28T12:17:48.893Z,16.10
2023-04-28T12:20:39.306Z,15.80
2023-04-28T12:23:07.341Z,16.77
2023-04-28T12:25:43.714Z,16.17
2023-04-28T12:28:10.524Z,17.47
2023-04-28T12:30:38.589Z,16.20
2023-04-28T12:33:05.503Z,17.80
2023-04-28T12:35:32.466Z,17.63
2023-04-28T12:37:59.315Z,19.57
2023-04-28T12:40:26.394Z,17.47
2023-04-28T12:42:53.326Z,17.13
2023-04-28T12:45:20.204Z,19.67
2023-04-28T12:47:47.013Z,17.57
2023-04-28T12:50:13.893Z,19.83
2023-04-28T12:52:40.661Z,18.93
2023-04-28T12:55:08.367Z,15.83
2023-04-28T12:57:36.233Z,17.23
2023-04-28T13:00:07.154Z,16.70
2023-04-28T13:02:34.547Z,14.43
2023-04-28T13:05:02.027Z,14.47
2023-04-28T13:07:29.130Z,14.37
2023-04-28T13:09:56.367Z,17.30
2023-04-28T13:12:23.803Z,16.00
2023-04-28T13:14:50.628Z,17.30
2023-04-28T13:17:17.444Z,17.00
2023-04-28T13:19:44.598Z,17.20
2023-04-28T13:22:11.844Z,17.73
2023-04-28T13:24:38.715Z,18.90
2023-04-28T13:27:05.554Z,17.40
2023-04-28T13:29:32.404Z,18.50
2023-04-28T13:31:59.264Z,19.60
2023-04-28T13:34:26.135Z,19.47
2023-04-28T13:36:53.088Z,18.10
2023-04-28T13:39:20.644Z,20.47
2023-04-28T13:41:48.209Z,24.27
2023-04-28T13:44:15.958Z,23.17
2023-04-28T13:46:43.012Z,24.97
2023-04-28T13:49:10.560Z,26.57
2023-04-28T13:51:37.758Z,21.37
2023-04-28T13:54:05.464Z,21.37
2023-04-28T13:56:32.373Z,21.37
2023-04-28T13:58:59.232Z,23.63
2023-04-28T14:01:26.702Z,22.07
2023-04-28T14:03:53.784Z,22.93
2023-04-28T14:06:20.870Z,21.83
2023-04-28T14:08:47.734Z,20.30
2023-04-28T14:11:14.762Z,21.80
2023-04-28T14:13:41.644Z,21.50
2023-04-28T14:16:08.509Z,17.37
2023-04-28T14:18:35.340Z,19.77
2023-04-28T14:21:02.226Z,19.83
2023-04-28T14:23:30.214Z,16.90
2023-04-28T14:25:57.084Z,17.37
2023-04-28T14:28:24.253Z,15.87
2023-04-28T14:30:51.190Z,17.27
2023-04-28T14:33:18.035Z,15.83
2023-04-28T14:35:44.906Z,14.00
2023-04-28T14:38:14.060Z,14.80
2023-04-28T14:40:41.015Z,13.90
2023-04-28T14:43:07.911Z,12.87
2023-04-28T14:45:36.451Z,13.00
2023-04-28T14:48:03.512Z,15.40
2023-04-28T14:50:30.707Z,14.77
2023-04-28T14:52:57.510Z,17.00
2023-04-28T14:55:24.401Z,15.67
2023-04-28T14:57:51.230Z,16.70
2023-04-28T15:00:18.866Z,15.70
2023-04-28T15:02:45.848Z,18.03
2023-04-28T15:05:12.840Z,17.40
2023-04-28T15:07:39.692Z,16.13
2023-04-28T15:10:07.710Z,17.80
2023-04-28T15:12:34.830Z,18.70
2023-04-28T15:15:01.742Z,18.00
2023-04-28T15:17:28.607Z,21.30
2023-04-28T15:19:55.596Z,20.47
2023-04-28T15:22:23.849Z,21.20
2023-04-28T15:24:51.647Z,21.60
2023-04-28T15:27:18.482Z,21.50
2023-04-28T15:29:45.260Z,27.23
2023-04-28T15:32:12.021Z,21.20
2023-04-28T15:34:38.831Z,19.60
2023-04-28T15:37:38.665Z,18.17
2023-04-28T15:40:06.687Z,17.37
2023-04-28T15:42:33.507Z,15.40
2023-04-28T15:45:00.347Z,16.97
2023-04-28T15:47:27.133Z,16.83
2023-04-28T15:49:54.093Z,15.20
2023-04-28T15:52:21.035Z,14.13
2023-04-28T15:54:48.435Z,14.40
2023-04-28T15:57:15.402Z,13.80
2023-04-28T15:59:42.196Z,15.30
2023-04-28T16:02:09.079Z,19.50
2023-04-28T16:04:35.996Z,16.10
2023-04-28T16:07:02.963Z,17.70
2023-04-28T16:09:30.293Z,16.87
2023-04-28T16:11:58.492Z,18.50
2023-04-28T16:14:26.186Z,15.93
2023-04-28T16:16:53.146Z,15.70
2023-04-28T16:19:20.024Z,17.50
2023-04-28T16:21:46.864Z,16.17
2023-04-28T16:24:13.674Z,15.97
2023-04-28T16:26:40.507Z,16.90
2023-04-28T16:29:07.300Z,16.03
2023-04-28T16:31:34.183Z,16.00
2023-04-28T16:34:01.095Z,13.90
2023-04-28T16:36:31.319Z,18.60
2023-04-28T16:38:58.619Z,14.80
2023-04-28T16:41:25.431Z,17.17
2023-04-28T16:43:52.236Z,13.83
2023-04-28T16:46:19.189Z,13.83
2023-04-28T16:48:46.041Z,11.53
2023-04-28T16:51:12.857Z,11.67
2023-04-28T16:53:39.727Z,11.90
2023-04-28T16:56:09.079Z,11.90
2023-04-28T16:58:37.393Z,13.53
2023-04-28T17:01:04.367Z,13.43
2023-04-28T17:03:31.434Z,12.43
2023-04-28T17:05:58.723Z,13.53
2023-04-28T17:08:25.526Z,13.00
2023-04-28T17:10:52.366Z,14.13
2023-04-28T17:13:20.444Z,17.20
2023-04-28T17:15:55.262Z,17.57
2023-04-28T17:18:22.095Z,15.70
2023-04-28T17:20:48.946Z,15.27
2023-04-28T17:23:16.122Z,17.60
2023-04-28T17:25:43.147Z,16.47
2023-04-28T17:28:10.297Z,17.30
2023-04-28T17:30:40.790Z,17.40
2023-04-28T17:33:09.100Z,16.57
2023-04-28T17:35:37.488Z,16.67
2023-04-28T17:38:04.303Z,16.10
2023-04-28T17:40:31.113Z,19.37
2023-04-28T17:42:57.987Z,21.33
2023-04-28T17:45:24.776Z,21.13
2023-04-28T17:47:51.678Z,22.47
2023-04-28T17:50:18.854Z,22.03
2023-04-28T17:52:47.142Z,21.17
2023-04-28T17:55:15.393Z,22.07
2023-04-28T17:57:43.174Z,23.70
2023-04-28T18:00:11.524Z,22.30
2023-04-28T18:02:38.410Z,22.60
2023-04-28T18:05:05.700Z,22.03
2023-04-28T18:07:32.624Z,22.00
2023-04-28T18:09:59.413Z,22.47
2023-04-28T18:12:27.654Z,27.40
2023-04-28T18:15:00.574Z,26.53
2023-04-28T18:17:32.992Z,21.27
2023-04-28T18:20:04.922Z,24.70
2023-04-28T18:22:39.115Z,23.10
2023-04-28T18:25:10.829Z,23.77
2023-04-28T18:27:42.321Z,23.70
2023-04-28T18:30:11.884Z,26.93
2023-04-28T18:32:38.719Z,26.20
2023-04-28T18:35:14.786Z,25.50
2023-04-28T18:37:49.142Z,26.00
2023-04-28T18:40:17.063Z,24.97
2023-04-28T18:42:44.356Z,27.30
2023-04-28T18:47:40.275Z,25.10
2023-04-28T18:50:07.749Z,27.90
2023-04-28T18:52:35.463Z,28.07
2023-04-28T18:55:02.552Z,27.97
2023-04-28T18:57:29.475Z,28.30
2023-04-28T18:59:56.398Z,26.67
2023-04-28T19:02:23.258Z,28.80
2023-04-28T19:04:51.839Z,29.07
2023-04-28T19:07:26.278Z,27.47
2023-04-28T19:09:58.194Z,31.10
2023-04-28T19:12:25.826Z,27.77
2023-04-28T19:14:54.011Z,29.30
2023-04-28T19:17:22.243Z,31.43
2023-04-28T19:19:50.095Z,30.90
2023-04-28T19:22:47.746Z,29.37
2023-04-28T19:25:20.540Z,29.80
2023-04-28T19:27:48.467Z,28.57
2023-04-28T19:30:15.983Z,30.20
2023-04-28T19:32:51.659Z,28.97
2023-04-28T19:35:21.234Z,36.10
2023-04-28T19:37:51.491Z,29.50
2023-04-28T19:40:31.722Z,30.67
2023-04-28T19:42:59.812Z,32.20
2023-04-28T19:45:32.797Z,31.17
2023-04-28T19:48:07.138Z,29.07
2023-04-28T19:50:41.644Z,29.57
2023-04-28T19:53:09.708Z,28.33
2023-04-28T19:55:37.213Z,29.13
2023-04-28T19:58:04.607Z,31.53
2023-04-28T20:00:32.690Z,32.80
2023-04-28T20:03:00.319Z,28.13
2023-04-28T20:05:27.561Z,31.40
2023-04-28T20:07:56.099Z,30.10
2023-04-28T20:10:24.228Z,30.50
2023-04-28T20:12:51.080Z,31.10
2023-04-28T20:15:18.305Z,31.23
2023-04-28T20:17:46.256Z,30.70
2023-04-28T20:20:13.796Z,31.60
2023-04-28T20:22:40.741Z,32.80
2023-04-28T20:25:09.578Z,30.63
2023-04-28T20:27:37.211Z,32.43
2023-04-28T20:30:05.421Z,30.73
2023-04-28T20:32:32.369Z,30.93
2023-04-28T20:34:59.600Z,30.77
2023-04-28T20:37:26.569Z,28.83
2023-04-28T20:39:53.825Z,29.17
2023-04-28T20:42:20.698Z,30.13
2023-04-28T20:44:47.623Z,31.63
2023-04-28T20:47:14.733Z,31.90
2023-04-28T20:49:41.567Z,32.90
2023-04-28T20:52:08.983Z,34.17
2023-04-28T20:54:36.294Z,32.30
2023-04-28T20:57:04.578Z,33.97
2023-04-28T20:59:48.249Z,33.90
2023-04-28T21:02:15.364Z,31.17
2023-04-28T21:04:42.180Z,30.70
2023-04-28T21:07:09.043Z,33.07
2023-04-28T21:09:35.903Z,32.53
2023-04-28T21:12:02.686Z,29.90
2023-04-28T21:14:29.504Z,28.67
2023-04-28T21:16:56.530Z,29.10
2023-04-28T21:19:23.601Z,31.60
2023-04-28T21:21:50.404Z,30.40
2023-04-28T21:24:17.276Z,28.40
2023-04-28T21:26:44.229Z,26.37
2023-04-28T21:29:10.984Z,28.30
2023-04-28T21:31:37.938Z,24.20
2023-04-28T21:34:05.079Z,26.87
2023-04-28T21:36:32.015Z,25.90
2023-04-28T21:38:58.824Z,28.17
2023-04-28T21:41:25.958Z,11.60
2023-04-28T21:43:52.929Z,18.70
2023-04-28T21:46:19.861Z,18.63
2023-04-28T21:48:47.153Z,15.53
2023-04-28T21:51:14.026Z,15.30
2023-04-28T21:53:41.185Z,14.40
2023-04-28T21:56:08.348Z,12.77
2023-04-28T21:58:35.347Z,11.57
2023-04-28T22:01:04.151Z,11.43
2023-04-28T22:03:31.415Z,14.17
2023-04-28T22:05:58.396Z,11.00
2023-04-28T22:08:25.199Z,10.80
2023-04-28T22:10:52.060Z,10.97
2023-04-28T22:13:19.323Z,10.77
2023-04-28T22:15:46.200Z,10.47
2023-04-28T22:18:13.015Z,10.37
2023-04-28T22:20:39.896Z,11.67
2023-04-28T22:23:06.701Z,12.20
2023-04-28T22:25:33.616Z,11.17
2023-04-28T22:28:00.417Z,8.23
2023-04-28T22:30:27.380Z,7.10
2023-04-28T22:32:54.295Z,5.83
2023-04-28T22:35:21.222Z,3.83
2023-04-28T22:37:48.070Z,4.20
2023-04-28T22:40:14.936Z,2.30
2023-04-28T22:42:42.717Z,3.10
2023-04-28T22:45:10.996Z,2.20
2023-04-28T22:47:39.803Z,2.23
2023-04-28T22:50:11.082Z,1.73
2023-04-28T22:52:38.439Z,2.70
2023-04-28T22:55:06.161Z,2.10
2023-04-28T22:57:33.082Z,3.27
2023-04-28T23:00:00.068Z,2.50
2023-04-28T23:02:27.190Z,3.00
2023-04-28T23:04:54.370Z,1.73
2023-04-28T23:07:21.640Z,2.30
2023-04-28T23:09:48.706Z,1.40
2023-04-28T23:12:15.981Z,1.73
2023-04-28T23:14:42.936Z,1.73
2023-04-28T23:17:09.773Z,2.10
2023-04-28T23:19:36.610Z,2.07
2023-04-28T23:22:03.469Z,1.40
2023-04-28T23:24:30.310Z,1.80
2023-04-28T23:26:57.164Z,2.40
2023-04-28T23:29:24.121Z,1.80
2023-04-28T23:31:51.163Z,1.70
2023-04-28T23:34:18.419Z,3.00
2023-04-28T23:36:45.196Z,1.80
2023-04-28T23:39:12.079Z,1.70
2023-04-28T23:41:39.167Z,1.90
2023-04-28T23:44:05.970Z,2.50
2023-04-28T23:46:33.013Z,5.47
2023-04-28T23:49:00.014Z,1.70
2023-04-28T23:51:26.885Z,1.50
2023-04-28T23:53:53.758Z,1.60
2023-04-28T23:56:20.554Z,2.23
2023-04-28T23:58:47.426Z,2.70
